AirNav   Everest Fuels
 
 1038 users online  

8CO1 Prospect Peak Heliport
Texas Creek, Colorado, USA

GOING TO TEXAS CREEK?


FAA INFORMATION EFFECTIVE 08 SEPTEMBER 2022

Location

FAA Identifier: 8CO1
Lat/Long: 38-28-40.0000N 105-31-16.0000W
38-28.666667N 105-31.266667W
38.4777778,-105.5211111
(estimated)
Elevation: 8660 ft. / 2640 m (estimated)
Variation: 11E (1995)
From city: 5 miles NE of TEXAS CREEK, CO
Time zone: UTC -6 (UTC -7 during Standard Time)
Zip code: 81212

Heliport Operations

Heliport use: Private use. Permission required prior to landing
Activation date: 10/1997
Control tower: no
ARTCC: DENVER CENTER
FSS: DENVER FLIGHT SERVICE STATION
Attendance: UNATNDD
Segmented circle: no

Heliport Communications

WX AWOS-3 at 1V6 (20 nm E): 120.025 ((719) 784-2014)

Nearby radio navigation aids

VOR radial/distance  VOR name  Freq  Var
FCSr239/37.9BUTTS VOR/DME108.8012E

 
NDB name  Hdg/Dist  Freq  Var  ID
IRONHORSE244/38.033508EIHS .. .... ...

Heliport Services

Runway Information

Helipad H1

Dimensions: 20 x 20 ft. / 6 x 6 m
Surface: dirt
Traffic pattern: leftleft

Heliport Ownership and Management from official FAA records

Ownership: Privately-owned
Owner: CENTURYLINK
9666 METRO AIRPORT AVE
BROOMFIELD, CO 80012
Phone (303) 643-4972
Manager: DARREN ALMSKOG
9666 METRO AIRPORT AVE
BROOMFIELD, CO 80012
Phone (303) 304-9960
DARREN ALMSKOG 303-304-9960 DARREN.ALMSKOG@CENTURYLINK.COM

Additional Remarks

A52-H1 HAS +30 FT TWR 100 FT W.
FOR CD CTC DENVER ARTCC AT 303-651-4257.

Instrument Procedures

There are no published instrument procedures at 8CO1.

Some nearby airports with instrument procedures:

1V6 - Fremont County Airport (20 nm E)
KANK - Salida Airport/Harriett Alexander Field (25 nm W)
KAEJ - Central Colorado Regional Airport (35 nm NW)
KCOS - City of Colorado Springs Municipal Airport (43 nm NE)
KPUB - Pueblo Memorial Airport (49 nm E)
 
Loc | Ops | Rwys | IFR | FBO | Links
Com | Nav | Svcs | Stats | Notes

AirBoss

 
Area around 8CO1 (Prospect Peak Heliport)
 
Road maps at: MapQuest Bing Google
 
Aerial photo
No photo
 
Sectional chart

 
Airport distance calculator
Flying to Prospect Peak Heliport? Find the distance to fly.

From to 8CO1

Sunrise and sunset
Times for 24-Sep-2022
 Local
(UTC-6)
 Zulu
(UTC)
Morning civil twilight06:2612:26
Sunrise06:5312:53
Sunset18:5600:56
Evening civil twilight19:2201:22

Current date and time
Zulu (UTC)  24-Sep-2022 22:14:56
Local (UTC-6)  24-Sep-2022 16:14:56
 
METAR
K1V6 
20nm E 
242155Z AUTO 20005KT 10SM CLR 31/M02 A3012 RMK AO2
KANK 
25nm W 
242150Z AUTO 28004KT 10SM CLR A3037 RMK AO1
K4BM 
34nm N 
242155Z AUTO 30005KT 10SM CLR 15/M11 A3061 RMK AO2
KAEJ 
35nm NW 
242155Z AUTO 28003KT 10SM 23/M09 A3033 RMK AO2 T02301092
KFCS 
37nm E 
242056Z AUTO 13008KT 10SM CLR 28/M04 A3016 RMK AO2 SLP164 T02791042 57018 $
KMYP 
37nm W 
242155Z AUTO 30014G21KT 10SM CLR 12/M04 A3074 RMK AO2
K7BM 
38nm NW 
242154Z AUTO 23003KT 10SM CLR 18/M13 A3048 RMK AO2
K04V 
38nm SW 
242155Z AUTO 30012KT 10SM 24/M12 A3034 RMK AO2
TAF
KFCS 
37nm E 
241545Z 2405/2511 34005KT 9999 SKC QNH3021INS BECMG 2418/2419 20010G15KT 9999 SKC QNH3019INS BECMG 2500/2501 34008KT 9999 SKC QNH3024INS TX25/2421Z TN08/2510Z LAST NO AMDS AFT 2405 NEXT 2605
KCOS 
43nm NE 
241724Z 2418/2518 16012G22KT P6SM SKC FM242300 10008KT P6SM SKC FM250300 01007KT P6SM SKC FM250800 35014KT P6SM SCT080 FM251700 16008KT P6SM SCT080
KAFF 
44nm NE 
241905Z 2419/2601 14012KT 9999 SKC 520006 QNH3023INS WND 110V240 BECMG 2501/2502 35009KT 9999 FEW080 QNH3021INS BECMG 2507/2508 02015KT 9999 VCSH FEW045 SCT060 QNH3030INS BECMG 2510/2511 36009KT 9999 NSW FEW070 QNH3036INS BECMG 2516/2517 14018KT 9999 FEW100 QNH3044INS BECMG 2518/2519 16015G25KT 9999 FEW080 FEW180 520006 QNH3031INS TX24/2421Z TN04/2512Z
NOTAMs
Click for the latest NOTAMs
NOTAMs are issued by the DoD/FAA and will open in a separate window not controlled by AirNav.

 

 
 

Would you like to see your business listed on this page?

 If your business provides an interesting product or service to pilots, flight crews, aircraft, or users of the Prospect Peak Heliport, you should consider listing it here.  To start the listing process, click on the button below
 
Add a business
 

Other Pages about Prospect Peak Heliport

Update a link
 
Copyright © AirNav, LLC. All rights reserved. Privacy Policy  Contact